Time;durP1;ratioP1;P1;durP2;ratioP2;P2;SDS_P1;SDS_P2;PMS_P1;PMS_P2;Temp;Humidity;BMP_temperature;BMP_pressure;BME280_temperature;BME280_humidity;BME280_pressure;Samples;Min_cycle;Max_cycle;Signal;HPM_P1;HPM_P2
2023/03/29 00:02:28;;;;;;;;;;;;;;;2.14;47.06;95660.47;5051428;28;1050;-55
2023/03/29 00:04:55;;;;;;;;;;;;;;;2.11;46.76;95665.94;5052920;28;1035;-55
2023/03/29 00:07:22;;;;;;;;;;;;;;;2.08;47.21;95669.63;5052708;28;1377;-55
2023/03/29 00:09:48;;;;;;;;;;;;;;;2.06;47.45;95668.88;5052707;28;1011;-55
2023/03/29 00:12:14;;;;;;;;;;;;;;;2.13;47.40;95670.19;5052715;28;1991;-55
2023/03/29 00:14:40;;;;;;;;;;;;;;;2.22;47.10;95673.16;5052702;28;1025;-55
2023/03/29 00:17:06;;;;;;;;;;;;;;;2.25;47.38;95681.75;5051571;28;1121;-55
2023/03/29 00:19:35;;;;;;;;;;;;;;;2.36;47.03;95675.78;5052820;28;1052;-55
2023/03/29 00:22:04;;;;;;;;;;;;;;;2.47;46.84;95677.75;5052468;28;1046;-56
2023/03/29 00:24:30;;;;;;;;;;;;;;;2.40;47.23;95677.28;5052217;28;1297;-55
2023/03/29 00:26:56;;;;;;;;;;;;;;;2.38;47.45;95673.91;5052463;28;1029;-56
2023/03/29 00:29:22;;;;;;;;;;;;;;;2.38;47.27;95678.34;5052570;28;946;-56
2023/03/29 00:31:52;;;;;;;;;;;;;;;2.39;47.20;95672.09;5054864;28;1910;-55
2023/03/29 00:34:19;;;;;;;;;;;;;;;2.34;47.62;95664.47;5056117;28;1248;-55
2023/03/29 00:36:49;;;;;;;;;;;;;;;2.39;47.36;95661.53;5055929;28;1045;-55
2023/03/29 00:39:16;;;;;;;;;;;;;;;2.30;47.70;95657.72;5056384;28;1000;-54
2023/03/29 00:41:44;;;;;;;;;;;;;;;2.21;47.97;95659.13;5056118;28;1032;-55
2023/03/29 00:44:28;;;;;;;;;;;;;;;2.23;48.11;95645.84;5055945;28;1051;-55
2023/03/29 00:46:54;;;;;;;;;;;;;;;2.22;48.25;95649.41;5056155;28;1013;-56
2023/03/29 00:49:21;;;;;;;;;;;;;;;2.22;47.90;95652.94;5055772;28;1050;-55
2023/03/29 00:51:47;;;;;;;;;;;;;;;2.23;48.97;95651.97;5055657;28;2356;-55
2023/03/29 00:54:14;;;;;;;;;;;;;;;2.28;48.82;95654.31;5055868;28;1037;-55
2023/03/29 00:56:42;;;;;;;;;;;;;;;2.27;48.82;95660.53;5055871;28;1056;-56
2023/03/29 00:59:12;;;;;;;;;;;;;;;2.28;47.81;95668.38;5055818;28;1101;-56
2023/03/29 01:01:40;;;;;;;;;;;;;;;2.22;48.17;95665.25;5055858;28;1044;-55
2023/03/29 01:04:16;;;;;;;;;;;;;;;2.31;48.30;95662.03;5055874;28;1061;-55
2023/03/29 01:06:48;;;;;;;;;;;;;;;2.44;48.15;95670.00;5055455;28;1034;-55
2023/03/29 01:09:15;;;;;;;;;;;;;;;2.38;47.82;95675.69;5054189;28;1113;-54
2023/03/29 01:11:46;;;;;;;;;;;;;;;2.37;48.26;95674.81;5055319;28;2001;-55
2023/03/29 01:14:35;;;;;;;;;;;;;;;2.30;48.10;95673.53;5055189;28;1042;-55
2023/03/29 01:17:01;;;;;;;;;;;;;;;2.28;48.08;95670.16;5050001;28;1041;-55
2023/03/29 01:19:30;;;;;;;;;;;;;;;2.34;48.59;95667.97;5055443;28;1099;-55
2023/03/29 01:22:29;;;;;;;;;;;;;;;2.47;48.27;95672.47;5055194;28;1058;-56
2023/03/29 01:25:10;;;;;;;;;;;;;;;2.47;48.37;95673.31;5032275;28;1655;-55
2023/03/29 01:27:46;;;;;;;;;;;;;;;2.46;48.50;95668.97;5054919;28;1057;-56
2023/03/29 01:30:16;;;;;;;;;;;;;;;2.44;48.42;95672.66;5055197;28;953;-55
2023/03/29 01:32:46;;;;;;;;;;;;;;;2.41;48.74;95676.34;5054927;28;1914;-56
2023/03/29 01:35:18;;;;;;;;;;;;;;;2.54;48.64;95664.06;5054637;28;1252;-56
2023/03/29 01:37:48;;;;;;;;;;;;;;;2.44;48.49;95670.00;5054900;28;1105;-55
2023/03/29 01:40:14;;;;;;;;;;;;;;;2.32;49.03;95674.28;5054135;28;1029;-55
2023/03/29 01:42:45;;;;;;;;;;;;;;;2.30;49.07;95657.72;5054868;28;974;-56
2023/03/29 01:45:29;;;;;;;;;;;;;;;2.38;49.58;95658.06;5054666;28;1082;-56
2023/03/29 01:48:07;;;;;;;;;;;;;;;2.42;48.85;95662.19;5054779;28;974;-56
2023/03/29 01:50:33;;;;;;;;;;;;;;;2.49;49.05;95666.13;5054436;28;1050;-55
2023/03/29 01:53:13;;;;;;;;;;;;;;;2.44;48.93;95664.72;5054471;28;1902;-56
2023/03/29 01:55:42;;;;;;;;;;;;;;;2.49;48.89;95666.13;5054603;28;929;-55
2023/03/29 01:58:10;;;;;;;;;;;;;;;2.45;49.48;95667.28;5054645;28;1053;-56
2023/03/29 02:00:37;;;;;;;;;;;;;;;2.31;50.04;95670.78;5054703;28;978;-56
2023/03/29 02:03:05;;;;;;;;;;;;;;;2.29;50.15;95663.91;5054306;28;1034;-55
2023/03/29 02:05:33;;;;;;;;;;;;;;;2.31;50.45;95664.66;5054548;28;1024;-56
2023/03/29 02:08:00;;;;;;;;;;;;;;;2.29;49.77;95664.75;5054222;28;1022;-55
2023/03/29 02:10:27;;;;;;;;;;;;;;;2.40;50.06;95669.38;5054212;28;997;-56
2023/03/29 02:12:53;;;;;;;;;;;;;;;2.41;50.31;95667.56;5053861;28;1906;-56
2023/03/29 02:15:19;;;;;;;;;;;;;;;2.38;50.50;95668.63;5054036;28;961;-55
2023/03/29 02:17:46;;;;;;;;;;;;;;;2.42;51.31;95666.63;5053910;28;1034;-56
2023/03/29 02:20:21;;;;;;;;;;;;;;;2.48;50.05;95677.63;5054223;28;1016;-55
2023/03/29 02:22:51;;;;;;;;;;;;;;;2.37;49.95;95669.53;5053962;28;1162;-55
2023/03/29 02:25:17;;;;;;;;;;;;;;;2.28;50.39;95676.28;5053854;28;1300;-55
2023/03/29 02:27:44;;;;;;;;;;;;;;;2.20;50.22;95673.28;5053769;28;1045;-55
2023/03/29 02:30:11;;;;;;;;;;;;;;;2.24;49.65;95674.78;5053753;28;1111;-55
2023/03/29 02:32:43;;;;;;;;;;;;;;;2.22;50.00;95676.69;5053781;28;1902;-55
2023/03/29 02:35:12;;;;;;;;;;;;;;;2.21;50.58;95679.41;5053600;28;1259;-55
2023/03/29 02:37:41;;;;;;;;;;;;;;;2.17;50.91;95686.66;5053717;28;1053;-54
2023/03/29 02:40:11;;;;;;;;;;;;;;;2.14;51.06;95681.56;5053706;28;1065;-55
2023/03/29 02:42:38;;;;;;;;;;;;;;;2.13;50.85;95693.91;5053529;28;1042;-55
2023/03/29 02:45:06;;;;;;;;;;;;;;;1.97;51.97;95690.53;5053834;28;1051;-54
2023/03/29 02:47:36;;;;;;;;;;;;;;;1.89;52.30;95680.47;5053420;28;1063;-55
2023/03/29 02:50:02;;;;;;;;;;;;;;;1.85;52.72;95686.03;5053436;28;1120;-55
2023/03/29 02:52:33;;;;;;;;;;;;;;;1.81;53.27;95682.75;5053422;28;1997;-55
2023/03/29 02:55:01;;;;;;;;;;;;;;;1.88;53.57;95684.06;5053223;28;1001;-55
2023/03/29 02:57:28;;;;;;;;;;;;;;;1.81;53.80;95687.19;5053253;28;1047;-55
2023/03/29 02:59:56;;;;;;;;;;;;;;;1.80;54.13;95693.38;5053581;28;1032;-55
2023/03/29 03:02:24;;;;;;;;;;;;;;;1.90;54.12;95692.72;5053209;28;1024;-55
2023/03/29 03:04:51;;;;;;;;;;;;;;;1.87;54.72;95694.69;5053518;28;1023;-55
2023/03/29 03:07:18;;;;;;;;;;;;;;;1.90;54.69;95700.63;5053487;28;969;-55
2023/03/29 03:09:46;;;;;;;;;;;;;;;1.99;53.97;95711.53;5053232;28;1070;-55
2023/03/29 03:12:12;;;;;;;;;;;;;;;2.00;53.60;95718.53;5052971;28;1883;-55
2023/03/29 03:14:39;;;;;;;;;;;;;;;2.00;53.78;95719.38;5053146;28;1018;-55
2023/03/29 03:17:05;;;;;;;;;;;;;;;2.01;53.86;95715.81;5053333;28;961;-55
2023/03/29 03:19:31;;;;;;;;;;;;;;;1.91;53.23;95718.13;5053248;28;1048;-55
2023/03/29 03:21:58;;;;;;;;;;;;;;;1.89;53.71;95721.81;5053430;28;1037;-55
2023/03/29 03:24:24;;;;;;;;;;;;;;;2.01;53.39;95723.72;5053008;28;1535;-55
2023/03/29 03:26:50;;;;;;;;;;;;;;;1.90;53.65;95723.53;5052964;28;977;-56
2023/03/29 03:29:16;;;;;;;;;;;;;;;1.85;53.89;95728.22;5053177;28;1016;-55
2023/03/29 03:31:43;;;;;;;;;;;;;;;1.75;54.24;95736.69;5053239;28;1914;-55
2023/03/29 03:34:09;;;;;;;;;;;;;;;1.75;53.76;95734.06;5052793;28;1117;-55
2023/03/29 03:36:36;;;;;;;;;;;;;;;1.66;54.19;95742.53;5053264;28;1032;-55
2023/03/29 03:39:05;;;;;;;;;;;;;;;1.69;54.63;95742.34;5053056;28;1206;-55
2023/03/29 03:41:32;;;;;;;;;;;;;;;1.88;54.22;95746.50;5052735;28;970;-55
2023/03/29 03:43:59;;;;;;;;;;;;;;;1.88;54.37;95742.06;5053244;28;1219;-55
2023/03/29 03:46:25;;;;;;;;;;;;;;;1.85;54.27;95752.81;5053021;28;1109;-56
2023/03/29 03:48:51;;;;;;;;;;;;;;;1.82;54.82;95746.84;5052725;28;1113;-55
2023/03/29 03:51:17;;;;;;;;;;;;;;;1.86;55.50;95746.59;5052633;28;1906;-55
2023/03/29 03:53:43;;;;;;;;;;;;;;;1.90;55.28;95747.25;5052589;28;1038;-55
2023/03/29 03:56:09;;;;;;;;;;;;;;;1.92;54.96;95753.28;5052901;28;981;-55
2023/03/29 03:58:36;;;;;;;;;;;;;;;1.93;55.04;95752.34;5052790;28;1093;-55
2023/03/29 04:01:03;;;;;;;;;;;;;;;1.91;55.29;95752.41;5052676;28;1010;-55
2023/03/29 04:03:30;;;;;;;;;;;;;;;2.02;55.51;95756.22;5053003;28;986;-55
2023/03/29 04:05:59;;;;;;;;;;;;;;;1.98;55.98;95752.91;5053861;28;1001;-56
2023/03/29 04:08:26;;;;;;;;;;;;;;;2.05;55.03;95754.22;5056503;28;982;-55
2023/03/29 04:10:53;;;;;;;;;;;;;;;1.99;55.23;95759.88;5056594;28;2065;-54
2023/03/29 04:13:21;;;;;;;;;;;;;;;2.09;55.72;95753.09;5056685;28;1012;-53
2023/03/29 04:15:48;;;;;;;;;;;;;;;2.20;54.27;95759.50;5056775;28;1036;-53
2023/03/29 04:18:15;;;;;;;;;;;;;;;2.14;54.95;95763.34;5056426;28;1048;-53
2023/03/29 04:20:42;;;;;;;;;;;;;;;2.23;54.45;95761.94;5056322;28;1049;-53
2023/03/29 04:23:08;;;;;;;;;;;;;;;2.15;54.98;95760.63;5056270;28;1135;-54
2023/03/29 04:25:34;;;;;;;;;;;;;;;1.98;54.79;95758.19;5056377;28;1021;-54
2023/03/29 04:28:00;;;;;;;;;;;;;;;1.93;54.87;95762.88;5056179;28;1046;-54
2023/03/29 04:30:26;;;;;;;;;;;;;;;1.94;54.72;95768.06;5056359;28;1070;-54
2023/03/29 04:32:52;;;;;;;;;;;;;;;1.92;54.92;95759.41;5056353;28;1981;-54
2023/03/29 04:35:18;;;;;;;;;;;;;;;1.81;55.82;95761.00;5055956;28;1116;-54
2023/03/29 04:37:45;;;;;;;;;;;;;;;1.86;55.58;95769.47;5056324;28;1028;-54
2023/03/29 04:40:13;;;;;;;;;;;;;;;1.89;55.90;95771.94;5056142;28;954;-54
2023/03/29 04:42:43;;;;;;;;;;;;;;;2.07;55.62;95770.81;5055878;28;1105;-54
2023/03/29 04:45:10;;;;;;;;;;;;;;;2.22;55.43;95770.78;5055956;28;1097;-54
2023/03/29 04:47:38;;;;;;;;;;;;;;;2.25;55.47;95765.34;5056126;28;1051;-54
2023/03/29 04:50:05;;;;;;;;;;;;;;;2.37;54.95;95772.47;5055785;28;1894;-54
2023/03/29 04:52:32;;;;;;;;;;;;;;;2.40;55.18;95780.22;5055564;28;1985;-55
2023/03/29 04:54:58;;;;;;;;;;;;;;;2.47;54.80;95786.81;5055896;28;961;-54
2023/03/29 04:57:24;;;;;;;;;;;;;;;2.59;54.48;95787.81;5055558;28;1033;-55
2023/03/29 04:59:50;;;;;;;;;;;;;;;2.67;54.57;95793.44;5055648;28;1049;-55
2023/03/29 05:02:16;;;;;;;;;;;;;;;2.53;55.39;95790.84;5055640;28;973;-55
2023/03/29 05:04:42;;;;;;;;;;;;;;;2.67;54.92;95793.44;5055549;28;1030;-55
2023/03/29 05:07:08;;;;;;;;;;;;;;;2.89;53.22;95798.22;5055415;28;1034;-55
2023/03/29 05:09:34;;;;;;;;;;;;;;;2.85;53.88;95793.25;5055392;28;1045;-55
2023/03/29 05:12:01;;;;;;;;;;;;;;;2.91;54.60;95800.78;5055343;28;1914;-55
2023/03/29 05:14:27;;;;;;;;;;;;;;;3.02;53.35;95808.03;5055492;28;965;-54
2023/03/29 05:16:53;;;;;;;;;;;;;;;3.11;53.02;95797.69;5054766;28;1042;-55
2023/03/29 05:19:22;;;;;;;;;;;;;;;3.14;52.84;95801.94;5055195;28;929;-54
2023/03/29 05:21:48;;;;;;;;;;;;;;;3.12;53.42;95809.94;5055213;28;1009;-54
2023/03/29 05:24:16;;;;;;;;;;;;;;;3.24;52.79;95813.59;5055199;28;1614;-55
2023/03/29 05:26:42;;;;;;;;;;;;;;;3.41;51.56;95816.94;5055238;28;989;-54
2023/03/29 05:29:09;;;;;;;;;;;;;;;3.01;50.92;95817.72;5055287;28;1089;-54
2023/03/29 05:31:38;;;;;;;;;;;;;;;2.89;51.64;95819.38;5054964;28;1995;-55
2023/03/29 05:34:05;;;;;;;;;;;;;;;2.89;51.80;95824.66;5054817;28;1235;-55
2023/03/29 05:36:32;;;;;;;;;;;;;;;2.96;51.92;95825.13;5054804;28;1255;-54
2023/03/29 05:38:58;;;;;;;;;;;;;;;2.98;51.59;95819.72;5055116;28;965;-54
2023/03/29 05:41:25;;;;;;;;;;;;;;;2.92;52.66;95821.81;5054889;28;957;-55
2023/03/29 05:43:51;;;;;;;;;;;;;;;2.89;51.46;95829.09;5055120;28;1029;-55
2023/03/29 05:46:17;;;;;;;;;;;;;;;2.91;50.01;95835.97;5054970;28;1040;-54
2023/03/29 05:48:43;;;;;;;;;;;;;;;2.95;49.51;95841.06;5054944;28;1057;-55
2023/03/29 05:51:09;;;;;;;;;;;;;;;2.79;51.28;95838.53;5054525;28;1905;-55
2023/03/29 05:53:35;;;;;;;;;;;;;;;2.82;52.21;95839.19;5054902;28;1047;-55
2023/03/29 05:56:02;;;;;;;;;;;;;;;2.75;52.49;95835.22;5054352;28;1033;-56
2023/03/29 05:58:29;;;;;;;;;;;;;;;3.21;51.55;95840.22;5054678;28;1019;-55
2023/03/29 06:00:56;;;;;;;;;;;;;;;3.88;47.39;95855.25;5054677;28;1001;-56
2023/03/29 06:03:26;;;;;;;;;;;;;;;4.68;45.97;95857.69;5054407;28;1088;-56
2023/03/29 06:06:01;;;;;;;;;;;;;;;5.20;45.28;95858.47;5054506;28;1057;-56
2023/03/29 06:08:27;;;;;;;;;;;;;;;5.46;44.08;95867.16;5054645;28;969;-56
2023/03/29 06:10:58;;;;;;;;;;;;;;;5.75;44.13;95862.38;5054164;28;1910;-56
2023/03/29 06:13:24;;;;;;;;;;;;;;;6.01;41.97;95865.75;5054298;28;973;-56
2023/03/29 06:15:50;;;;;;;;;;;;;;;6.11;42.11;95870.34;5054279;28;1020;-56
2023/03/29 06:18:16;;;;;;;;;;;;;;;6.21;41.78;95871.34;5054344;28;1020;-56
2023/03/29 06:20:42;;;;;;;;;;;;;;;5.95;41.93;95882.13;5054056;28;1037;-56
2023/03/29 06:23:08;;;;;;;;;;;;;;;5.94;41.88;95885.72;5053995;28;1532;-56
2023/03/29 06:25:34;;;;;;;;;;;;;;;6.09;41.89;95877.59;5054064;28;1297;-56
2023/03/29 06:28:01;;;;;;;;;;;;;;;6.36;40.97;95887.94;5053357;28;1045;-55
2023/03/29 06:30:27;;;;;;;;;;;;;;;6.46;41.49;95883.59;5053722;28;1042;-53
2023/03/29 06:32:54;;;;;;;;;;;;;;;6.00;40.03;95892.41;5052941;28;1914;-57
2023/03/29 06:36:03;;;;;;;;;;;;;;;6.49;38.91;95899.31;5034797;28;1322;-57
2023/03/29 06:38:31;;;;;;;;;;;;;;;6.62;38.40;95897.41;5053741;28;1109;-56
2023/03/29 06:41:05;;;;;;;;;;;;;;;6.93;39.15;95902.16;5053710;28;1034;-57
2023/03/29 06:43:31;;;;;;;;;;;;;;;7.51;37.35;95918.81;5053580;28;994;-57
2023/03/29 06:45:58;;;;;;;;;;;;;;;8.06;36.93;95916.09;5053880;28;1058;-56
2023/03/29 06:48:24;;;;;;;;;;;;;;;8.21;37.53;95917.50;5053701;28;1056;-55
2023/03/29 06:50:51;;;;;;;;;;;;;;;8.46;37.05;95919.94;5053612;28;1187;-53
2023/03/29 06:53:17;;;;;;;;;;;;;;;8.62;37.66;95920.34;5053616;28;1040;-56
2023/03/29 06:55:43;;;;;;;;;;;;;;;9.06;35.34;95922.84;5053384;28;1065;-56
2023/03/29 06:58:09;;;;;;;;;;;;;;;9.23;35.10;95929.38;5053425;28;1046;-55
2023/03/29 07:00:38;;;;;;;;;;;;;;;8.90;35.27;95934.84;5053538;28;973;-56
2023/03/29 07:03:05;;;;;;;;;;;;;;;8.98;35.20;95936.84;5053412;28;1022;-55
2023/03/29 07:05:31;;;;;;;;;;;;;;;9.46;34.72;95943.38;5053430;28;1040;-56
2023/03/29 07:08:15;;;;;;;;;;;;;;;9.17;35.25;95926.25;5053578;28;1004;-56
2023/03/29 07:10:43;;;;;;;;;;;;;;;8.84;34.82;95924.72;5053525;28;1227;-56
2023/03/29 07:13:12;;;;;;;;;;;;;;;9.07;35.19;95928.06;5053354;28;1983;-56
2023/03/29 07:15:39;;;;;;;;;;;;;;;9.32;35.13;95934.75;5053555;28;1026;-56
2023/03/29 07:18:05;;;;;;;;;;;;;;;9.63;34.32;95939.22;5052158;28;1036;-56
2023/03/29 07:20:32;;;;;;;;;;;;;;;9.73;33.84;95943.63;5053072;28;1030;-56
2023/03/29 07:22:59;;;;;;;;;;;;;;;10.01;33.10;95930.44;5053278;28;1523;-57
2023/03/29 07:25:26;;;;;;;;;;;;;;;9.81;33.19;95931.38;5053179;28;1053;-56
2023/03/29 07:27:52;;;;;;;;;;;;;;;9.83;33.39;95932.13;5053052;28;1058;-57
2023/03/29 07:30:20;;;;;;;;;;;;;;;9.81;33.37;95934.91;5051834;28;1104;-54
2023/03/29 07:32:48;;;;;;;;;;;;;;;9.92;33.83;95926.78;5053100;28;2048;-56
2023/03/29 07:35:16;;;;;;;;;;;;;;;9.98;33.44;95936.09;5052998;28;962;-56
2023/03/29 07:37:43;;;;;;;;;;;;;;;10.44;33.33;95923.06;5052900;28;1070;-55
2023/03/29 07:40:14;;;;;;;;;;;;;;;10.22;32.59;95933.00;5054733;28;966;-55
2023/03/29 07:42:42;;;;;;;;;;;;;;;10.40;33.35;95919.81;5057392;28;973;-56
2023/03/29 07:45:09;;;;;;;;;;;;;;;10.14;33.00;95924.84;5057199;28;1032;-56
2023/03/29 07:47:35;;;;;;;;;;;;;;;10.32;32.17;95933.03;5056943;28;1582;-55
2023/03/29 07:50:01;;;;;;;;;;;;;;;10.30;32.82;95934.97;5057297;28;1059;-56
2023/03/29 07:52:28;;;;;;;;;;;;;;;10.15;32.10;95938.06;5056645;28;1910;-56
2023/03/29 07:54:55;;;;;;;;;;;;;;;10.18;32.51;95931.59;5057157;28;996;-56
2023/03/29 07:57:23;;;;;;;;;;;;;;;10.36;32.13;95931.78;5056796;28;1073;-56
2023/03/29 07:59:49;;;;;;;;;;;;;;;10.59;32.60;95931.50;5056772;28;1069;-56
2023/03/29 08:02:15;;;;;;;;;;;;;;;10.88;31.66;95931.44;5056803;28;1021;-56
2023/03/29 08:04:41;;;;;;;;;;;;;;;11.22;30.72;95936.28;5057078;28;973;-56
2023/03/29 08:07:07;;;;;;;;;;;;;;;11.59;30.68;95928.25;5056937;28;1001;-56
2023/03/29 08:09:33;;;;;;;;;;;;;;;11.14;29.60;95929.81;5056824;28;1032;-57
2023/03/29 08:11:59;;;;;;;;;;;;;;;10.99;31.05;95928.59;5056794;28;1902;-57
2023/03/29 08:14:27;;;;;;;;;;;;;;;11.24;30.80;95918.25;5056479;28;1080;-56
2023/03/29 08:16:53;;;;;;;;;;;;;;;11.10;30.21;95923.09;5056550;28;972;-56
2023/03/29 08:19:20;;;;;;;;;;;;;;;11.15;30.37;95914.59;5055199;28;1040;-56
2023/03/29 08:21:46;;;;;;;;;;;;;;;11.30;30.49;95912.31;5056652;28;996;-57
2023/03/29 08:24:13;;;;;;;;;;;;;;;11.62;29.68;95911.03;5056120;28;1588;-57
2023/03/29 08:26:39;;;;;;;;;;;;;;;11.71;29.56;95918.19;5056470;28;969;-56
2023/03/29 08:29:07;;;;;;;;;;;;;;;11.47;29.00;95916.88;5056483;28;1015;-56
2023/03/29 08:31:33;;;;;;;;;;;;;;;11.56;29.00;95907.13;5056273;28;1894;-55
2023/03/29 08:33:59;;;;;;;;;;;;;;;11.32;28.82;95908.50;5056176;28;1040;-57
2023/03/29 08:36:25;;;;;;;;;;;;;;;11.68;28.98;95908.59;5055717;28;1342;-57
2023/03/29 08:38:51;;;;;;;;;;;;;;;11.84;29.08;95912.47;5056333;28;1012;-56
2023/03/29 08:41:23;;;;;;;;;;;;;;;12.34;28.12;95916.53;5056082;28;1058;-56
2023/03/29 08:44:27;;;;;;;;;;;;;;;12.43;27.46;95919.13;5055915;28;1699;-56
2023/03/29 08:46:56;;;;;;;;;;;;;;;12.39;27.67;95916.94;5056100;28;1017;-56
2023/03/29 08:49:22;;;;;;;;;;;;;;;12.74;26.91;95907.16;5056077;28;1293;-56
2023/03/29 08:51:51;;;;;;;;;;;;;;;12.77;26.87;95922.94;5054925;28;1902;-56
2023/03/29 08:54:24;;;;;;;;;;;;;;;12.23;27.57;95914.91;5055647;28;1029;-56
2023/03/29 08:56:51;;;;;;;;;;;;;;;12.42;27.60;95909.38;5055696;28;1046;-56
2023/03/29 08:59:21;;;;;;;;;;;;;;;12.56;27.43;95915.19;5055939;28;1025;-56
2023/03/29 09:01:49;;;;;;;;;;;;;;;12.77;26.97;95920.25;5055898;28;1077;-56
2023/03/29 09:04:21;;;;;;;;;;;;;;;12.48;26.83;95918.66;5055792;28;1017;-55
2023/03/29 09:06:47;;;;;;;;;;;;;;;12.56;27.21;95921.44;5055618;28;977;-57
2023/03/29 09:09:16;;;;;;;;;;;;;;;12.65;26.47;95920.50;5055310;28;1060;-57
2023/03/29 09:11:45;;;;;;;;;;;;;;;12.52;27.45;95925.44;5055389;28;1906;-57
2023/03/29 09:14:30;;;;;;;;;;;;;;;12.79;26.93;95932.50;5054187;28;1556;-57
2023/03/29 09:16:56;;;;;;;;;;;;;;;12.59;27.29;95923.78;5055283;28;1030;-57
2023/03/29 09:19:22;;;;;;;;;;;;;;;12.87;27.06;95931.72;5054096;28;1044;-56
2023/03/29 09:22:00;;;;;;;;;;;;;;;12.69;25.97;95926.38;5055108;28;1058;-57
2023/03/29 09:24:45;;;;;;;;;;;;;;;12.72;25.74;95922.56;5054935;28;1336;-57
2023/03/29 09:27:14;;;;;;;;;;;;;;;12.81;25.90;95918.94;5055331;28;1013;-56
2023/03/29 09:29:40;;;;;;;;;;;;;;;12.57;26.72;95922.25;5054204;28;958;-57
2023/03/29 09:32:15;;;;;;;;;;;;;;;12.28;27.25;95931.38;5055077;28;1926;-56
2023/03/29 09:34:48;;;;;;;;;;;;;;;12.11;25.57;95931.22;5054962;28;1040;-57
2023/03/29 09:37:34;;;;;;;;;;;;;;;12.36;25.93;95933.31;5054422;28;1346;-56
2023/03/29 09:40:02;;;;;;;;;;;;;;;12.40;24.97;95937.38;5054747;28;1725;-56
2023/03/29 09:42:29;;;;;;;;;;;;;;;12.43;25.49;95926.34;5054662;28;1101;-57
2023/03/29 09:45:00;;;;;;;;;;;;;;;12.70;25.75;95923.53;5054922;28;982;-57
2023/03/29 09:47:28;;;;;;;;;;;;;;;12.37;25.48;95933.16;5054876;28;1138;-56
2023/03/29 09:49:56;;;;;;;;;;;;;;;12.48;25.58;95927.56;5054977;28;969;-56
2023/03/29 09:52:22;;;;;;;;;;;;;;;12.35;25.55;95928.94;5054420;28;1988;-56
2023/03/29 09:54:48;;;;;;;;;;;;;;;11.86;25.50;95924.72;5055001;28;1071;-56
2023/03/29 09:57:16;;;;;;;;;;;;;;;12.10;25.70;95915.28;5046284;28;2494;-57
2023/03/29 09:59:44;;;;;;;;;;;;;;;12.35;25.05;95910.16;5034692;28;992;-56
2023/03/29 10:02:11;;;;;;;;;;;;;;;12.27;25.89;95902.88;5034489;28;1105;-57
2023/03/29 10:04:38;;;;;;;;;;;;;;;12.19;24.19;95930.47;5033614;28;989;-56
2023/03/29 10:07:08;;;;;;;;;;;;;;;12.36;26.44;95907.31;5034799;28;1071;-57
2023/03/29 10:09:34;;;;;;;;;;;;;;;12.59;26.67;95907.69;5034384;28;1112;-56
2023/03/29 10:12:04;;;;;;;;;;;;;;;12.63;25.87;95909.06;5034312;28;1991;-57
2023/03/29 10:14:33;;;;;;;;;;;;;;;12.73;25.98;95906.31;5033059;28;1054;-56
2023/03/29 10:17:03;;;;;;;;;;;;;;;12.59;25.67;95901.50;5034744;28;1099;-55
2023/03/29 10:19:33;;;;;;;;;;;;;;;12.65;26.17;95887.44;5034260;28;1058;-56
2023/03/29 10:22:00;;;;;;;;;;;;;;;12.57;26.17;95885.53;5034301;28;1034;-56
2023/03/29 10:24:27;;;;;;;;;;;;;;;12.56;26.54;95873.16;5046340;28;1523;-55
2023/03/29 10:26:56;;;;;;;;;;;;;;;12.72;27.25;95866.22;5054060;28;1034;-55
2023/03/29 10:29:23;;;;;;;;;;;;;;;12.85;26.78;95867.47;5054233;28;977;-55
2023/03/29 10:31:50;;;;;;;;;;;;;;;13.02;26.53;95872.97;5053926;28;1984;-55
2023/03/29 10:34:16;;;;;;;;;;;;;;;12.88;24.43;95872.53;5054214;28;1048;-55
2023/03/29 10:36:45;;;;;;;;;;;;;;;12.37;24.31;95873.31;5053963;28;1093;-55
2023/03/29 10:39:13;;;;;;;;;;;;;;;12.41;26.31;95864.81;5053938;28;1024;-56
2023/03/29 10:41:40;;;;;;;;;;;;;;;12.38;26.15;95859.75;5053739;28;1092;-55
2023/03/29 10:44:07;;;;;;;;;;;;;;;12.42;26.76;95855.75;5054051;28;972;-56
2023/03/29 10:46:41;;;;;;;;;;;;;;;12.51;26.53;95864.72;5053724;28;1042;-55
2023/03/29 10:49:16;;;;;;;;;;;;;;;12.69;25.85;95851.25;5053632;28;1081;-55
2023/03/29 10:51:44;;;;;;;;;;;;;;;12.59;25.83;95851.34;5053887;28;1998;-55
2023/03/29 10:54:12;;;;;;;;;;;;;;;12.52;26.16;95839.59;5053803;28;1013;-55
2023/03/29 10:56:41;;;;;;;;;;;;;;;12.42;26.32;95845.03;5053770;28;1055;-55
2023/03/29 10:59:08;;;;;;;;;;;;;;;12.25;27.24;95838.69;5053938;28;1010;-55
2023/03/29 11:01:34;;;;;;;;;;;;;;;12.28;26.41;95832.19;5053636;28;1132;-56
2023/03/29 11:04:00;;;;;;;;;;;;;;;12.11;26.29;95837.41;5053990;28;1298;-55
2023/03/29 11:06:26;;;;;;;;;;;;;;;12.21;27.22;95836.47;5053905;28;1104;-55
2023/03/29 11:08:52;;;;;;;;;;;;;;;12.16;25.68;95850.34;5053450;28;964;-55
2023/03/29 11:11:18;;;;;;;;;;;;;;;12.18;26.31;95837.63;5053131;28;1914;-56
2023/03/29 11:13:50;;;;;;;;;;;;;;;12.00;26.20;95836.78;5053611;28;1037;-55
2023/03/29 11:16:35;;;;;;;;;;;;;;;11.81;26.72;95824.34;5053184;28;1047;-55
2023/03/29 11:19:10;;;;;;;;;;;;;;;11.88;26.78;95825.44;5053355;28;964;-56
2023/03/29 11:21:48;;;;;;;;;;;;;;;11.95;27.30;95823.88;5053540;28;1009;-56
2023/03/29 11:24:46;;;;;;;;;;;;;;;11.98;27.15;95828.91;5053079;28;1273;-57
2023/03/29 11:27:26;;;;;;;;;;;;;;;11.73;27.46;95812.53;5053083;28;1032;-56
2023/03/29 11:30:01;;;;;;;;;;;;;;;11.69;27.63;95826.41;5053128;28;1046;-56
2023/03/29 11:32:27;;;;;;;;;;;;;;;11.75;27.68;95807.03;5052899;28;1987;-56
2023/03/29 11:35:11;;;;;;;;;;;;;;;11.64;26.97;95820.66;5053204;28;1020;-56
2023/03/29 11:37:48;;;;;;;;;;;;;;;11.66;28.17;95827.53;5052792;28;1106;-56
2023/03/29 11:40:38;;;;;;;;;;;;;;;11.94;27.22;95814.13;5051673;28;1019;-56
2023/03/29 11:43:26;;;;;;;;;;;;;;;12.20;28.33;95816.88;5053354;28;981;-56
2023/03/29 11:45:59;;;;;;;;;;;;;;;12.14;27.73;95814.81;5053149;28;1024;-56
2023/03/29 11:48:35;;;;;;;;;;;;;;;12.11;27.61;95815.94;5052931;28;977;-56
2023/03/29 11:51:09;;;;;;;;;;;;;;;11.80;27.69;95810.13;5053324;28;1036;-56
2023/03/29 11:53:40;;;;;;;;;;;;;;;11.66;27.22;95811.47;5052931;28;1101;-56
2023/03/29 11:56:16;;;;;;;;;;;;;;;11.77;27.14;95807.72;5052744;28;993;-56
2023/03/29 11:58:46;;;;;;;;;;;;;;;11.69;27.64;95800.47;5053158;28;1037;-56
2023/03/29 12:01:16;;;;;;;;;;;;;;;11.77;28.24;95807.72;5052703;28;1018;-57
2023/03/29 12:03:49;;;;;;;;;;;;;;;11.73;27.94;95815.22;5053027;28;1037;-56
2023/03/29 12:06:36;;;;;;;;;;;;;;;11.56;28.38;95816.06;5052732;28;1053;-56
2023/03/29 12:09:06;;;;;;;;;;;;;;;11.42;29.45;95803.16;5052689;28;1954;-56
2023/03/29 12:11:35;;;;;;;;;;;;;;;11.46;26.36;95809.94;5052484;28;1906;-56
2023/03/29 12:14:14;;;;;;;;;;;;;;;11.40;26.30;95822.09;5052880;28;1241;-56
2023/03/29 12:16:46;;;;;;;;;;;;;;;11.27;26.98;95810.88;5052844;28;993;-56
2023/03/29 12:19:28;;;;;;;;;;;;;;;11.39;25.86;95824.91;5053141;28;1036;-55
2023/03/29 12:21:55;;;;;;;;;;;;;;;11.36;27.11;95807.28;5052917;28;988;-56
2023/03/29 12:24:24;;;;;;;;;;;;;;;11.41;26.74;95813.03;5052271;28;1574;-56
2023/03/29 12:26:53;;;;;;;;;;;;;;;11.63;27.29;95809.09;5053322;28;1053;-56
2023/03/29 12:29:39;;;;;;;;;;;;;;;11.64;26.21;95817.97;5056311;28;1044;-55
2023/03/29 12:32:26;;;;;;;;;;;;;;;11.52;26.31;95818.19;5056058;28;1918;-54
2023/03/29 12:34:55;;;;;;;;;;;;;;;11.58;26.51;95808.72;5056477;28;1024;-57
2023/03/29 12:37:45;;;;;;;;;;;;;;;11.63;27.22;95808.25;5055837;28;1225;-56
2023/03/29 12:40:11;;;;;;;;;;;;;;;11.69;26.96;95816.53;5056267;28;1025;-54
2023/03/29 12:42:44;;;;;;;;;;;;;;;11.65;27.38;95811.63;5056031;28;1112;-55
2023/03/29 12:45:14;;;;;;;;;;;;;;;11.59;26.47;95812.22;5055860;28;1001;-55
2023/03/29 12:47:42;;;;;;;;;;;;;;;11.59;26.78;95810.41;5056269;28;1032;-56
2023/03/29 12:50:24;;;;;;;;;;;;;;;11.80;26.63;95806.56;5056195;28;1042;-56
2023/03/29 12:52:50;;;;;;;;;;;;;;;11.76;27.19;95803.38;5055776;28;2004;-55
2023/03/29 12:55:22;;;;;;;;;;;;;;;11.70;26.00;95817.38;5055892;28;953;-55
2023/03/29 12:58:17;;;;;;;;;;;;;;;11.67;27.19;95804.28;5056048;28;969;-55
2023/03/29 13:00:44;;;;;;;;;;;;;;;11.58;26.36;95816.75;5046800;28;1851;-55
2023/03/29 13:03:21;;;;;;;;;;;;;;;11.60;26.58;95809.41;5055693;28;1057;-55
2023/03/29 13:05:57;;;;;;;;;;;;;;;11.62;26.58;95802.06;5055901;28;966;-55
2023/03/29 13:08:32;;;;;;;;;;;;;;;11.58;26.16;95818.59;5055512;28;1038;-55
2023/03/29 13:10:58;;;;;;;;;;;;;;;11.68;25.93;95804.13;5055446;28;1030;-55
2023/03/29 13:13:31;;;;;;;;;;;;;;;11.67;25.77;95798.94;5055570;28;1995;-55
2023/03/29 13:16:07;;;;;;;;;;;;;;;11.66;24.45;95816.00;5055741;28;1016;-55
2023/03/29 13:18:45;;;;;;;;;;;;;;;11.40;24.61;95816.72;5055335;28;958;-54